• Join FlightAware (Why Join?)
  • Login
  • US Flag 
07:34PM EST


 

Airport Tracker/Info


-or-


 

Live Flight TrackerFlight Track Log ✈ BOE5 ✈ 11-Aug-2013 ✈ KBFI - KBFI

Flight Track Log - Related Links

Times and Time Zones

All times are in EDT time to prevent confusion due to time zone crossing. See the BOE5 flight status page for this flight to view local times or setup timezone preferences in your user account.

Time Position Orientation Groundspeed Altitude Reporting Facility
EDT Latitude Longitude Course Direction KTS MPH feet Rate Location/Type
12:05PM 47.5125 -122.2906 141° Southeast 163 188 1,300  Level Seattle Center
12:06PM 47.4900 -122.2636 141° Southeast 197 227 2,600 2,820 Climbing Seattle Center
12:07PM 47.4264 -122.2233 157° South 273 314 5,600 3,060 Climbing Seattle Center
12:08PM 47.3761 -122.2258 182° South 268 308 8,000 3,120 Climbing Seattle Center
12:09PM 47.3614 -122.3450 260° West 315 362 11,200 2,940 Climbing Seattle Center
12:10PM 47.3781 -122.4928 280° West 364 419 14,100 2,820 Climbing Seattle Center
12:11PM 47.3500 -122.6425 255° West 382 440 17,000 2,700 Climbing Seattle Center
12:12PM 47.3119 -122.7842 248° West 396 456 19,600 2,280 Climbing Seattle Center
12:13PM 47.2706 -122.9406 249° West 406 467 21,700 2,220 Climbing Seattle Center
12:14PM 47.2278 -123.1086 250° West 435 501 24,200 2,160 Climbing Seattle Center
12:15PM 47.1819 -123.2786 248° West 447 514 26,100 1,860 Climbing Seattle Center
12:16PM 47.0692 -123.4036 217° Southwest 446 513 28,100 1,740 Climbing Seattle Center
12:17PM 46.9478 -123.4011 179° South 441 507 29,700 1,380 Climbing Seattle Center
12:18PM 46.8225 -123.3928 177° South 452 520 31,000 1,320 Climbing Seattle Center
12:19PM 46.6956 -123.3900 179° South 456 525 32,400 1,260 Climbing Seattle Center
12:20PM 46.5656 -123.3864 179° South 468 539 33,600 1,140 Climbing Seattle Center
12:21PM 46.4339 -123.3825 179° South 480 552 34,800 660 Climbing Seattle Center
12:22PM 46.2944 -123.3717 177° South 493 567 35,000  Climbing Seattle Center
12:23PM 46.1597 -123.3644 178° South 491 565 34,900  Descending Seattle Center
12:24PM 46.0275 -123.3569 178° South 481 554 35,000  Climbing Seattle Center
12:25PM 45.8678 -123.3514 179° South 479 551 34,900  Descending Seattle Center
12:26PM 45.7347 -123.3467 179° South 479 551 35,000  Climbing Seattle Center
12:27PM 45.6028 -123.3406 178° South 475 547 35,000 -60 Level Seattle Center
12:28PM 45.4700 -123.3353 178° South 477 549 34,900 -60 Descending Seattle Center
12:29PM 45.3378 -123.3294 178° South 475 547 34,900  Level Seattle Center
12:30PM 45.2056 -123.3236 178° South 474 545 35,000  Climbing Seattle Center
12:31PM 45.0714 -123.3175 178° South 477 549 34,900 -60 Descending Seattle Center
12:32PM 44.9350 -123.3108 178° South 480 552 34,900  Level Seattle Center
12:33PM 44.7994 -123.3058 179° South 476 548 35,000  Climbing Seattle Center
12:34PM 44.6647 -123.2997 178° South 480 552 34,900 -60 Descending Seattle Center
12:35PM 44.5306 -123.2944 178° South 482 555 34,900  Level Seattle Center
12:36PM 44.3961 -123.2972 181° South 479 551 35,000  Climbing Seattle Center
12:37PM 44.2625 -123.3036 182° South 481 554 35,000 -60 Level Seattle Center
12:38PM 44.1292 -123.3094 182° South 480 552 34,900  Descending Seattle Center
12:39PM 43.9928 -123.3161 182° South 473 544 35,000  Climbing Seattle Center
12:40PM 43.8614 -123.3211 182° South 473 544 35,000  Level Seattle Center
12:41PM 43.7314 -123.3281 182° South 469 540 35,000  Level Seattle Center
12:42PM 43.5742 -123.3358 182° South 471 542 35,000  Level Seattle Center
12:43PM 43.4428 -123.3408 182° South 471 542 35,000  Level Seattle Center
12:44PM 43.3122 -123.3472 182° South 470 541 35,000  Level Seattle Center
12:45PM 43.1822 -123.3544 182° South 467 537 35,000  Level Seattle Center
12:46PM 43.0569 -123.3975 194° South 462 532 35,000  Level Seattle Center
12:47PM 42.9328 -123.4417 195° South 462 532 35,000  Level Seattle Center
12:48PM 42.8072 -123.4867 195° South 464 534 35,000  Level Seattle Center
12:49PM 42.6881 -123.5317 196° South 465 535 35,000  Level Seattle Center
12:50PM 42.5372 -123.5858 195° South 468 539 35,000  Level Seattle Center
12:52PM 42.4103 -123.6294 194° South 470 541 35,000  Level Seattle Center
12:53PM 42.2847 -123.6747 195° South 470 541 35,000  Level Seattle Center
12:54PM 42.1600 -123.7192 195° South 468 539 35,000  Level Seattle Center
12:55PM 42.0314 -123.7622 194° South 472 543 35,000 -60 Level Seattle Center
12:56PM 41.9031 -123.8067 194° South 474 545 34,900 -60 Descending Seattle Center
12:57PM 41.7756 -123.8522 195° South 475 547 34,900  Level Seattle Center
12:58PM 41.6481 -123.8972 195° South 473 544 34,900  Level Seattle Center
12:59PM 41.5208 -123.9411 194° South 471 542 35,000  Climbing Seattle Center
01:00PM 41.3669 -123.9944 195° South 474 545 35,000 -60 Level Seattle Center
01:01PM 41.2408 -124.0417 196° South 471 542 34,900 -60 Descending Seattle Center
01:02PM 41.0856 -124.0942 194° South 480 552 34,900  Level Seattle Center
01:03PM 40.9569 -124.1375 194° South 480 552 34,900  Level Seattle Center
01:04PM 40.8275 -124.1817 194° South 482 555 34,900  Level Seattle Center
01:05PM 40.7006 -124.2242 194° South 475 547 35,000  Climbing Seattle Center
01:06PM 40.5678 -124.2208 179° South 477 549 34,900  Descending Seattle Center
01:07PM 40.4306 -124.2047 175° South 480 552 35,000  Climbing Seattle Center
01:08PM 40.2986 -124.1869 174° South 479 551 35,000 -60 Level Seattle Center
01:09PM 40.1536 -124.1678 174° South 484 557 34,900  Descending Seattle Center
01:10PM 40.0214 -124.1506 174° South 480 552 35,000  Climbing Seattle Center
01:11PM 39.8878 -124.1342 175° South 482 555 34,900 -60 Descending Seattle Center
01:12PM 39.7547 -124.1167 174° South 481 554 34,900  Level Seattle Center
01:13PM 39.6219 -124.1003 175° South 480 552 34,900  Level Seattle Center
01:14PM 39.4647 -124.0811 175° South 475 547 34,900  Level Seattle Center
01:15PM 39.3322 -124.0644 174° South 477 549 35,000  Climbing Seattle Center
01:16PM 39.2000 -124.0481 175° South 478 550 35,000 -60 Level Seattle Center
01:17PM 39.0678 -124.0317 175° South 478 550 34,900 -60 Descending Seattle Center
01:18PM 38.9114 -124.0097 174° South 481 554 34,900  Level Oakland Center
01:19PM 38.7800 -123.9925 174° South 480 552 34,900  Level Oakland Center
01:20PM 38.6486 -123.9767 175° South 477 549 34,900  Level Oakland Center
01:22PM 38.4914 -123.9558 174° South 476 548 35,000  Climbing Oakland Center
01:23PM 38.3594 -123.9417 175° South 477 549 34,900  Descending Oakland Center
01:24PM 38.2283 -123.9247 174° South 477 549 35,000  Climbing Oakland Center
01:25PM 38.0981 -123.9078 174° South 473 544 34,900 -60 Descending Oakland Center
01:26PM 37.9686 -123.8925 175° South 470 541 34,900  Level Oakland Center
01:27PM 37.8367 -123.8772 175° South 477 549 34,900  Level Oakland Center
01:28PM 37.7028 -123.8611 175° South 483 556 34,900  Level Oakland Center
01:29PM 37.5456 -123.8431 175° South 477 549 34,900  Level Oakland Center
01:30PM 37.4328 -123.9053 204° Southwest 467 537 34,900  Level Oakland Center
01:31PM 37.4042 -124.0561 257° West 449 517 34,900  Level Oakland Center
01:32PM 37.4222 -124.2169 278° West 461 531 34,900  Level Oakland Center
01:33PM 37.4508 -124.3725 283° West 458 527 34,900  Level Oakland Center
01:35PM 37.6889 -124.5258 333° Northwest 494 568 34,900  Level Oakland Center
01:36PM 37.8197 -124.5842 341° North 496 571 34,900  Level Oakland Center
01:37PM 37.9783 -124.6522 341° North 498 573 35,000  Climbing Oakland Center
01:38PM 38.1097 -124.7108 341° North 500 575 34,900  Descending Oakland Center
01:39PM 38.2394 -124.7692 341° North 497 572 35,000  Climbing Oakland Center
01:40PM 38.3700 -124.8269 341° North 494 568 34,900 -60 Descending Oakland Center
01:41PM 38.4994 -124.8858 340° North 495 570 34,900  Level Oakland Center
01:42PM 38.6369 -124.9453 341° North 494 568 34,900  Level Oakland Center
01:43PM 38.7658 -125.0033 341° North 493 567 35,000  Climbing Oakland Center
01:44PM 38.8964 -125.0619 341° North 495 570 35,000  Level Oakland Center
01:45PM 39.0253 -125.1192 341° North 491 565 35,000 -60 Level Oakland Center
01:46PM 39.1744 -125.1842 341° North 493 567 34,900  Descending Oakland Center
01:47PM 39.3036 -125.2417 341° North 492 566 35,000  Climbing Oakland Center
01:48PM 39.4411 -125.3047 341° North 492 566 34,900 -60 Descending Oakland Center
01:49PM 39.5706 -125.3617 341° North 491 565 34,900  Level Oakland Center
01:50PM 39.7014 -125.4192 341° North 493 567 34,900  Level Oakland Center
01:51PM 39.8303 -125.4767 341° North 491 565 34,900 60 Level Oakland Center
01:52PM 39.9092 -125.5119 341° North 492 566 35,000 60 Climbing Oakland Center
01:53PM 40.0389 -125.5694 341° North 492 566 35,000 -60 Level Oakland Center
01:54PM 40.1686 -125.6267 341° North 492 566 34,900  Descending Oakland Center
01:55PM 40.3250 -125.6972 341° North 494 568 35,000  Climbing Oakland Center
01:56PM 40.4047 -125.7317 342° North 494 568 34,900 -60 Descending Seattle Center
01:57PM 40.5350 -125.7889 342° North 494 568 34,900  Level Seattle Center
01:58PM 40.6914 -125.8586 341° North 494 568 35,000  Climbing Seattle Center
01:59PM 40.8222 -125.9167 341° North 493 567 35,000 -60 Level Seattle Center
02:00PM 40.9522 -125.9744 341° North 495 570 34,900 -60 Descending Seattle Center
02:01PM 41.0778 -126.0458 337° Northwest 491 565 34,900  Level Seattle Center
02:02PM 41.1964 -126.1347 331° Northwest 489 563 34,900  Level Seattle Center
02:03PM 41.3336 -126.1403 358° North 512 589 35,000  Climbing Seattle Center
02:04PM 41.3925 -125.9853 63° Northeast 507 583 34,900 -60 Descending Seattle Center
02:05PM 41.3025 -125.8625 134° Southeast 481 554 34,900  Level Seattle Center
02:06PM 41.1772 -125.8006 160° South 477 549 35,000  Climbing Seattle Center
02:07PM 41.0525 -125.7364 159° South 480 552 35,000 -60 Level Seattle Center
02:08PM 40.9261 -125.6717 159° South 485 558 34,900  Descending Seattle Center
02:09PM 40.7761 -125.5939 159° South 486 559 35,000  Climbing Seattle Center
02:10PM 40.6508 -125.5300 159° South 485 558 35,000 -60 Level Seattle Center
02:11PM 40.5269 -125.4653 158° South 483 556 34,900 -60 Descending Seattle Center
02:12PM 40.4025 -125.4006 158° South 483 556 34,900  Level Seattle Center
02:13PM 40.2775 -125.3361 159° South 484 557 34,900  Level Seattle Center
02:14PM 40.1519 -125.2708 158° South 486 559 34,900 -180 Level Seattle Center
02:15PM 40.0275 -125.2067 158° South 485 558 34,600 -1,080 Descending Seattle Center
02:16PM 39.9039 -125.1419 158° South 484 557 32,800 -2,520 Descending Seattle Center
02:17PM 39.7619 -125.0672 158° South 473 544 29,500 -3,540 Descending Seattle Center
02:18PM 39.6500 -125.0086 158° South 459 528 25,700 -3,600 Descending Seattle Center
02:19PM 39.5433 -124.9536 158° South 441 507 22,300 -3,360 Descending Seattle Center
02:20PM 39.4422 -124.9000 158° South 422 486 18,900 -3,060 Descending Seattle Center
02:21PM 39.3469 -124.8497 158° South 400 460 16,100 -3,000 Descending Seattle Center
02:22PM 39.2556 -124.8028 158° South 379 436 12,900 -2,940 Descending Seattle Center
02:23PM 39.1675 -124.7567 158° South 363 418 10,100 -2,880 Descending Seattle Center
02:24PM 39.0831 -124.7125 158° South 349 402 7,000 -2,520 Descending Seattle Center
02:25PM 38.9872 -124.6631 158° South 329 379 5,000 60 Descending Seattle Center
02:27PM 39.2559 -124.5982 11° North  Level Estimated
02:34PM 40.9147 -124.1864 11° North  Level Estimated
02:35PM 41.1515 -124.1260 11° North  Level Estimated
02:36PM 41.3884 -124.0650 11° North  Level Estimated
02:37PM 41.6251 -124.0036 11° North  Level Estimated
02:38PM 41.8619 -123.9418 11° North  Level Estimated
02:39PM 42.0986 -123.8795 11° North  Level Estimated
02:40PM 42.3353 -123.8167 11° North  Level Estimated
02:41PM 42.5719 -123.7535 11° North  Level Estimated
02:42PM 42.8085 -123.6898 11° North  Level Estimated
02:43PM 43.0451 -123.6255 11° North  Level Estimated
02:44PM 43.2817 -123.5608 11° North  Level Estimated
02:45PM 43.5182 -123.4956 11° North  Level Estimated
02:46PM 43.7546 -123.4299 11° North  Level Estimated
02:47PM 43.9911 -123.3636 11° North  Level Estimated
02:48PM 44.2274 -123.2969 11° North  Level Estimated
02:49PM 44.4638 -123.2295 11° North  Level Estimated
02:50PM 44.7001 -123.1617 12° North  Level Estimated
02:51PM 44.9364 -123.0933 12° North  Level Estimated
02:52PM 45.1726 -123.0243 12° North  Level Estimated
02:53PM 45.4088 -122.9547 12° North  Level Estimated
02:54PM 45.6449 -122.8846 12° North  Level Estimated
02:55PM 45.8810 -122.8138 12° North  Level Estimated
02:56PM 46.1171 -122.7425 12° North  Level Estimated
02:57PM 46.3531 -122.6705 12° North  Level Estimated
02:58PM 46.5891 -122.5980 12° North  Level Estimated
02:59PM 46.8250 -122.5247 12° North  Level Estimated
03:00PM 47.0609 -122.4509 12° North  Level Estimated
03:01PM 47.2967 -122.3764 12° North  Level Estimated
03:02PM 47.5300 -122.3020 12° North  Level Estimated
03:03PM 47.5300 -122.3020 270° West  Level Estimated
03:04PM 47.5300 -122.3020 270° West  Level Estimated
03:05PM 47.5300 -122.3020 270° West  Level Estimated
03:06PM 47.5300 -122.3020 270° West  Level Estimated
03:07PM 47.5300 -122.3020 270° West  Level Estimated
03:08PM 47.5300 -122.3020 270° West  Level Estimated
03:09PM 47.5300 -122.3020 270° West  Level Estimated
03:10PM 47.5300 -122.3020 270° West  Level Estimated
03:11PM 47.5300 -122.3020 270° West  Level Estimated
03:12PM 47.5300 -122.3020 270° West  Level Estimated
03:13PM 47.5300 -122.3020 270° West  Level Estimated
03:14PM 47.5300 -122.3020 270° West  Level Estimated
03:15PM 47.5300 -122.3020 270° West  Level Estimated
03:16PM 47.5300 -122.3020 270° West  Level Estimated
03:17PM 47.5300 -122.3020 270° West  Level Estimated
03:18PM 47.5300 -122.3020 270° West  Level Estimated
03:19PM 47.5300 -122.3020 270° West  Level Estimated
03:20PM 47.5300 -122.3020 270° West  Level Estimated
03:21PM 47.5300 -122.3020 270° West  Level Estimated
03:22PM 47.5300 -122.3020 270° West  Level Estimated
03:23PM 47.5300 -122.3020 270° West  Level Estimated
03:24PM 47.5300 -122.3020 270° West  Level Estimated
03:25PM 47.5300 -122.3020 270° West  Level Estimated
03:26PM 47.5300 -122.3020 270° West  Level Estimated
03:27PM 47.5300 -122.3020 270° West  Level Estimated
03:28PM 47.5300 -122.3020 270° West  Level Estimated
03:29PM 47.5300 -122.3020 270° West  Level Estimated
03:30PM 47.5300 -122.3020 270° West  Level Estimated
03:31PM 47.5300 -122.3020 270° West  Level Estimated
03:32PM 47.5300 -122.3020 270° West  Level Estimated
03:33PM 47.5300 -122.3020 270° West  Level Estimated
03:34PM 47.5300 -122.3020 270° West  Level Estimated
03:35PM 47.5300 -122.3020 270° West  Level Estimated
03:36PM 47.5300 -122.3020 270° West  Level Estimated
03:37PM 47.5300 -122.3020 270° West  Level Estimated
03:38PM 47.5300 -122.3020 270° West  Level Estimated
03:39PM 47.5300 -122.3020 270° West  Level Estimated
03:40PM 47.5300 -122.3020 270° West  Level Estimated
03:41PM 47.5300 -122.3020 270° West  Level Estimated
03:42PM 47.5300 -122.3020 270° West  Level Estimated
03:43PM 47.5300 -122.3020 270° West  Level Estimated
03:44PM 47.5300 -122.3020 270° West  Level Estimated
03:45PM 47.5300 -122.3020 270° West  Level Estimated
03:46PM 47.5300 -122.3020 270° West  Level Estimated
03:47PM 47.5300 -122.3020 270° West  Level Estimated
03:48PM 47.5300 -122.3020 270° West  Level Estimated
03:49PM 47.5300 -122.3020 270° West  Level Estimated
03:50PM 47.5300 -122.3020 270° West  Level Estimated
03:51PM 47.5300 -122.3020 270° West  Level Estimated
03:52PM 47.5300 -122.3020 270° West  Level Estimated
03:53PM 47.5300 -122.3020 270° West  Level Estimated
03:54PM 47.5300 -122.3020 270° West  Level Estimated
03:55PM 47.5300 -122.3020 270° West  Level Estimated
03:56PM 47.5300 -122.3020 270° West  Level Estimated
03:57PM 47.5300 -122.3020 270° West  Level Estimated
03:58PM 47.5300 -122.3020 270° West  Level Estimated
03:59PM 47.5300 -122.3020 270° West  Level Estimated
03:59PM 40.5139 -125.7042 270° West 309 356 15,100  Level Seattle Center
04:00PM 47.5300 -122.3020 270° West  Level Estimated
04:00PM 40.6211 -125.7031 360° North 339 390 15,100  Level Seattle Center
04:01PM 47.5300 -122.3020 270° West  Level Estimated
04:01PM 40.7322 -125.7011 North 366 421 15,100  Level Seattle Center
04:02PM 47.5300 -122.3020 270° West  Level Estimated
04:02PM 40.8417 -125.6989 North 381 438 15,000  Level Seattle Center
04:03PM 47.5300 -122.3020 270° West  Level Estimated
04:03PM 40.9503 -125.6975 North 386 444 15,100  Level Seattle Center
04:04PM 47.5300 -122.3020 270° West  Level Estimated
04:04PM 41.0575 -125.6939 North 387 445 15,100  Level Seattle Center
04:05PM 41.1647 -125.6914 North 386 444 15,000 -60 Descending Seattle Center
04:06PM 41.2711 -125.6900 North 385 443 15,000  Level Seattle Center
04:07PM 41.3794 -125.6864 North 386 444 15,100  Climbing Seattle Center
04:08PM 41.5081 -125.6847 North 386 444 15,000  Descending Seattle Center
04:09PM 41.6161 -125.6825 North 386 444 15,100  Climbing Seattle Center
04:10PM 41.7233 -125.6800 North 386 444 15,100 -60 Level Seattle Center
04:11PM 41.8317 -125.6747 North 387 445 15,000  Descending Seattle Center
04:12PM 41.9394 -125.6719 North 388 447 15,100  Climbing Seattle Center
04:13PM 42.0467 -125.6586 North 387 445 15,000  Descending Seattle Center
04:14PM 42.1536 -125.6497 North 387 445 15,100  Climbing Seattle Center
04:15PM 42.2614 -125.6397 North 387 445 15,000  Descending Seattle Center
04:16PM 42.3753 -125.6281 North 389 448 15,100  Climbing Seattle Center
04:17PM 42.4775 -125.6200 North 388 447 15,000  Descending Seattle Center
04:18PM 42.6064 -125.6086 North 386 444 15,100 60 Climbing Seattle Center
04:19PM 42.7144 -125.5950 North 388 447 15,200  Climbing Seattle Center
04:21PM 42.8211 -125.5806 North 387 445 15,200  Level Seattle Center
04:22PM 42.9325 -125.5525 10° North 387 445 15,200  Level Seattle Center
04:23PM 43.0394 -125.5297 North 387 445 15,200  Level Seattle Center
04:24PM 43.1467 -125.5072 North 389 448 15,200  Level Seattle Center
04:25PM 43.2544 -125.4853 North 391 450 15,200  Level Seattle Center
04:26PM 43.3617 -125.4614 North 391 450 15,200  Level Seattle Center
04:27PM 43.4669 -125.4383 North 387 445 15,200  Level Seattle Center
04:28PM 43.5739 -125.4139 North 388 447 15,200 -60 Level Seattle Center
04:29PM 43.6761 -125.3606 21° North 393 452 15,100  Descending Seattle Center
04:30PM 43.7767 -125.3011 23° Northeast 394 453 15,200  Climbing Seattle Center
04:31PM 43.8969 -125.2328 22° Northeast 390 449 15,200 -60 Level Seattle Center
04:32PM 43.9983 -125.1764 22° Northeast 393 452 15,100  Descending Seattle Center
04:33PM 44.0989 -125.1172 23° Northeast 393 452 15,200  Climbing Seattle Center
04:34PM 44.1981 -125.0614 22° Northeast 387 445 15,200  Level Seattle Center
04:35PM 44.3033 -125.0853 351° North 397 457 15,200  Level Seattle Center
04:36PM 44.3947 -125.1569 331° Northwest 388 447 15,200  Level Seattle Center
04:37PM 44.4878 -125.2281 331° Northwest 382 440 15,200  Level Seattle Center
04:38PM 44.5797 -125.2958 332° Northwest 378 435 15,200  Level Seattle Center
04:39PM 44.6714 -125.3669 331° Northwest 377 434 15,200  Level Seattle Center
04:40PM 44.7672 -125.4250 337° Northwest 379 436 15,200 -60 Level Seattle Center
04:41PM 44.8631 -125.3231 37° Northeast 389 448 15,100  Descending Seattle Center
04:42PM 44.8364 -125.1881 106° East 392 451 15,200  Climbing Seattle Center
04:43PM 44.7358 -125.1606 169° South 385 443 15,200  Level Seattle Center
04:44PM 44.6400 -125.2072 199° South 372 428 15,200 -60 Level Seattle Center
04:45PM 44.5403 -125.2472 196° South 371 427 15,100 -60 Descending Seattle Center
04:46PM 44.4414 -125.2886 197° South 371 427 15,100  Level Seattle Center
04:47PM 44.3428 -125.3300 197° South 372 428 15,200  Climbing Seattle Center
04:48PM 44.2431 -125.3708 196° South 372 428 15,200  Level Seattle Center
04:49PM 44.1431 -125.4119 196° South 374 430 15,200  Level Seattle Center
04:50PM 44.0236 -125.4617 197° South 374 430 15,200 -60 Level Seattle Center
04:51PM 43.9242 -125.5025 196° South 373 429 15,100  Descending Seattle Center
04:52PM 43.8250 -125.5428 196° South 373 429 15,200  Climbing Seattle Center
04:53PM 43.7256 -125.5850 197° South 374 430 15,200  Level Seattle Center
04:54PM 43.6256 -125.6225 195° South 374 430 15,200  Level Seattle Center
04:55PM 43.5278 -125.6617 196° South 370 426 15,200 -60 Level Seattle Center
04:56PM 43.4292 -125.7039 197° South 370 426 15,100 -60 Descending Seattle Center
04:57PM 43.3294 -125.7467 197° South 373 429 15,100  Level Seattle Center
04:58PM 43.2297 -125.7864 196° South 373 429 15,200  Climbing Seattle Center
04:59PM 43.1292 -125.8258 196° South 374 430 15,200  Level Seattle Center
05:00PM 43.0097 -125.8717 196° South 373 429 15,200 -60 Level Seattle Center
05:01PM 42.9100 -125.9103 196° South 372 428 15,100  Descending Seattle Center
05:02PM 42.8167 -125.9475 196° South 372 428 15,200  Climbing Seattle Center
05:03PM 42.7164 -125.9875 196° South 374 430 15,200  Level Seattle Center
05:04PM 42.6167 -126.0258 196° South 374 430 15,200 -120 Level Seattle Center
05:05PM 42.5169 -126.0656 196° South 373 429 15,000 -120 Descending Seattle Center
05:06PM 42.3975 -126.1111 196° South 373 429 15,000  Level Seattle Center
05:07PM 42.2983 -126.1500 196° South 373 429 15,100  Climbing Seattle Center
05:08PM 42.1997 -126.1881 196° South 371 427 15,100  Level Seattle Center
05:10PM 42.1014 -126.2253 196° South 369 425 15,100 -60 Level Seattle Center
05:11PM 42.0028 -126.2619 195° South 368 423 15,000  Descending Seattle Center
05:12PM 41.9022 -126.3014 196° South 373 429 15,100  Climbing Seattle Center
05:13PM 41.8028 -126.3392 196° South 374 430 15,100  Level Seattle Center
05:14PM 41.7042 -126.3767 196° South 371 427 15,100 -60 Level Seattle Center
05:15PM 41.6039 -126.4042 192° South 372 428 15,000  Descending Seattle Center
05:16PM 41.5256 -126.3161 140° Southeast 378 435 15,100  Climbing Seattle Center
05:17PM 41.5436 -126.1758 80° East 385 443 15,100  Level Seattle Center
05:18PM 41.6597 -126.0953 27° Northeast 387 445 15,100  Level Seattle Center
05:19PM 41.7608 -126.0428 21° North 389 448 15,100  Level Seattle Center
05:20PM 41.8608 -125.9894 22° Northeast 388 447 15,100  Level Seattle Center
05:21PM 41.9636 -125.9328 22° Northeast 392 451 15,100  Level Seattle Center
05:22PM 42.0650 -125.8781 22° Northeast 393 452 15,100  Level Seattle Center
05:23PM 42.1656 -125.8244 22° Northeast 391 450 15,100  Level Seattle Center
05:24PM 42.2669 -125.7681 22° Northeast 393 452 15,100  Level Seattle Center
05:25PM 42.3686 -125.7125 22° Northeast 393 452 15,100  Level Seattle Center
05:26PM 42.4767 -125.6558 21° North 394 453 15,100 -60 Level Seattle Center
05:27PM 42.5700 -125.6042 22° Northeast 386 444 15,000  Descending Seattle Center
05:28PM 42.6744 -125.5414 24° Northeast 388 447 15,100  Climbing Seattle Center
05:29PM 42.7717 -125.4931 20° North 390 449 15,100  Level Seattle Center
05:30PM 42.8725 -125.4344 23° Northeast 393 452 15,100  Level Seattle Center
05:31PM 42.9775 -125.3756 22° Northeast 391 450 15,200  Climbing Seattle Center
05:32PM 43.0794 -125.3200 22° Northeast 393 452 15,100  Descending Seattle Center
05:33PM 43.1817 -125.2658 21° North 395 455 15,200  Climbing Seattle Center
05:34PM 43.3036 -125.1986 22° Northeast 395 455 15,200  Level Seattle Center
05:35PM 43.4067 -125.1400 22° Northeast 402 463 15,200  Level Seattle Center
05:36PM 43.5075 -125.0844 22° Northeast 391 450 15,200  Level Seattle Center
05:37PM 43.6108 -125.0281 22° Northeast 397 457 15,200  Level Seattle Center
05:38PM 43.7131 -124.9706 22° Northeast 400 460 15,200  Level Seattle Center
05:39PM 43.8108 -124.9050 26° Northeast 395 455 15,200  Level Seattle Center
05:40PM 43.9128 -124.8475 22° Northeast 398 458 15,200  Level Seattle Center
05:41PM 44.0194 -124.7872 22° Northeast 409 471 15,200 660 Level Seattle Center
05:42PM 44.1303 -124.7253 22° Northeast 426 490 16,600 2,040 Climbing Seattle Center
05:43PM 44.2436 -124.6558 24° Northeast 444 511 19,400 1,620 Climbing Seattle Center
05:44PM 44.3622 -124.5842 23° Northeast 460 529 19,900 240 Climbing Seattle Center
05:45PM 44.5044 -124.4989 23° Northeast 465 535 20,000  Climbing Seattle Center
05:46PM 44.6197 -124.4269 24° Northeast 457 526 19,900 -60 Descending Seattle Center
05:47PM 44.7358 -124.3539 24° Northeast 456 525 19,900  Level Seattle Center
05:48PM 44.8522 -124.2825 23° Northeast 454 522 20,000  Climbing Seattle Center
05:49PM 44.9694 -124.2092 24° Northeast 457 526 20,000  Level Seattle Center
05:50PM 45.0861 -124.1344 24° Northeast 457 526 20,000 -60 Level Seattle Center
05:51PM 45.2031 -124.0617 24° Northeast 457 526 19,900  Descending Seattle Center
05:52PM 45.3200 -123.9872 24° Northeast 457 526 20,000  Climbing Seattle Center
05:53PM 45.4361 -123.9136 24° Northeast 455 524 20,000  Level Seattle Center
05:54PM 45.5528 -123.8369 25° Northeast 460 529 20,000 -60 Level Seattle Center
05:55PM 45.6683 -123.7658 23° Northeast 455 524 19,900 -60 Descending Seattle Center
05:56PM 45.7828 -123.6936 24° Northeast 450 518 19,900  Level Seattle Center
05:57PM 45.8992 -123.6164 25° Northeast 459 528 19,900  Level Seattle Center
05:58PM 46.0153 -123.5419 24° Northeast 457 526 20,000  Climbing Seattle Center
05:59PM 46.1544 -123.4500 25° Northeast 458 527 20,000  Level Seattle Center
06:00PM 46.2708 -123.3756 24° Northeast 459 528 20,000  Level Seattle Center
06:01PM 46.3875 -123.2964 25° Northeast 463 533 20,000  Level Seattle Center
06:02PM 46.4933 -123.2275 24° Northeast 458 527 20,000  Level Seattle Center
06:03PM 46.6092 -123.1514 24° Northeast 460 529 20,000 -420 Level Seattle Center
06:05PM 46.7447 -123.0594 25° Northeast 454 522 19,200 -1,440 Descending Seattle Center
06:05PM 46.8008 -123.0172 27° Northeast 451 519 17,800 -1,200 Descending Seattle Center
06:06PM 46.9186 -122.9386 25° Northeast 387 445 17,300 -720 Descending Seattle Center
06:07PM 47.0033 -122.8611 32° Northeast 348 400 16,300 -1,500 Descending Seattle Center
06:08PM 47.0894 -122.7531 40° Northeast 351 404 14,200 -1,560 Descending Seattle Center
06:09PM 47.1619 -122.6619 40° Northeast 347 399 13,000 -1,080 Descending Seattle Center
06:10PM 47.2222 -122.5839 41° Northeast 313 360 12,200 -1,140 Descending Seattle Center
06:11PM 47.2886 -122.4953 42° Northeast 298 343 10,700 -1,740 Descending Seattle Center
06:12PM 47.3703 -122.4933 North 301 346 8,500 -1,500 Descending Seattle Center
06:13PM 47.4461 -122.5206 346° North 264 304 7,700 -1,080 Descending Seattle Center
06:14PM 47.5119 -122.5436 347° North 230 265 6,400 -900 Descending Seattle Center
06:15PM 47.5822 -122.5675 347° North 238 274 6,000 -240 Descending Seattle Center
06:16PM 47.6472 -122.5875 348° North 238 274 6,000 -300 Level Seattle Center
06:17PM 47.7111 -122.6119 346° North 235 270 5,500 -900 Descending Seattle Center
06:18PM 47.7569 -122.5736 29° Northeast 230 265 4,300 -1,140 Descending Seattle Center
06:19PM 47.7322 -122.5014 117° Southeast 199 229 3,300 -840 Descending Seattle Center
06:20PM 47.6844 -122.4619 151° Southeast 189 217 2,600 -720 Descending Seattle Center
06:21PM 47.6442 -122.4250 148° Southeast 165 190 1,900 -480 Descending Seattle Center
06:22PM 47.6156 -122.3817 134° Southeast 143 165 1,700 -480 Descending Seattle Center
06:23PM 47.5825 -122.3472 145° Southeast 132 152 1,000 -780 Descending Seattle Center
06:24PM 47.5508 -122.3189 149° Southeast 168 193 300 -600 Descending Seattle Center
06:25PM 47.5361 -122.3069 151° Southeast 137 158 200 -240 Descending Seattle Center